sensor_id;sensor_type;location;lat;lon;timestamp;pressure;altitude;pressure_sealevel;temperature;humidity
15914;BME280;8055;51.930;8.840;2022-11-20T00:00:05;99226.19;;;-5.21;100.00
15914;BME280;8055;51.930;8.840;2022-11-20T00:02:31;99230.03;;;-5.27;100.00
15914;BME280;8055;51.930;8.840;2022-11-20T00:04:56;99221.25;;;-5.27;100.00
15914;BME280;8055;51.930;8.840;2022-11-20T00:07:23;99226.63;;;-5.29;100.00
15914;BME280;8055;51.930;8.840;2022-11-20T00:09:48;99223.75;;;-5.40;100.00
15914;BME280;8055;51.930;8.840;2022-11-20T00:12:13;99222.56;;;-5.35;100.00
15914;BME280;8055;51.930;8.840;2022-11-20T00:14:39;99219.41;;;-5.41;100.00
15914;BME280;8055;51.930;8.840;2022-11-20T00:17:04;99219.22;;;-5.38;100.00
15914;BME280;8055;51.930;8.840;2022-11-20T00:19:29;99223.31;;;-5.32;100.00
15914;BME280;8055;51.930;8.840;2022-11-20T00:21:55;99223.31;;;-5.32;100.00
15914;BME280;8055;51.930;8.840;2022-11-20T00:24:20;99218.69;;;-5.29;100.00
15914;BME280;8055;51.930;8.840;2022-11-20T00:26:46;99204.81;;;-5.32;100.00
15914;BME280;8055;51.930;8.840;2022-11-20T00:29:11;99212.38;;;-5.26;100.00
15914;BME280;8055;51.930;8.840;2022-11-20T00:31:36;99211.00;;;-5.33;100.00
15914;BME280;8055;51.930;8.840;2022-11-20T00:34:02;99208.53;;;-5.37;100.00
15914;BME280;8055;51.930;8.840;2022-11-20T00:36:32;99209.22;;;-5.33;100.00
15914;BME280;8055;51.930;8.840;2022-11-20T00:38:58;99210.84;;;-5.30;100.00
15914;BME280;8055;51.930;8.840;2022-11-20T00:41:24;99201.28;;;-5.33;100.00
15914;BME280;8055;51.930;8.840;2022-11-20T00:43:52;99197.03;;;-5.36;100.00
15914;BME280;8055;51.930;8.840;2022-11-20T00:46:21;99201.28;;;-5.33;100.00
15914;BME280;8055;51.930;8.840;2022-11-20T00:48:46;99198.63;;;-5.33;100.00
15914;BME280;8055;51.930;8.840;2022-11-20T00:51:20;99202.22;;;-5.34;100.00
15914;BME280;8055;51.930;8.840;2022-11-20T00:53:47;99196.94;;;-5.34;100.00
15914;BME280;8055;51.930;8.840;2022-11-20T00:56:14;99192.25;;;-5.29;100.00
15914;BME280;8055;51.930;8.840;2022-11-20T00:58:43;99192.25;;;-5.29;100.00
15914;BME280;8055;51.930;8.840;2022-11-20T01:03:40;99195.72;;;-5.28;100.00
15914;BME280;8055;51.930;8.840;2022-11-20T01:06:17;99192.50;;;-5.33;100.00
15914;BME280;8055;51.930;8.840;2022-11-20T01:08:44;99204.69;;;-5.31;100.00
15914;BME280;8055;51.930;8.840;2022-11-20T01:11:13;99197.88;;;-5.35;100.00
15914;BME280;8055;51.930;8.840;2022-11-20T01:13:38;99197.72;;;-5.32;100.00
15914;BME280;8055;51.930;8.840;2022-11-20T01:18:32;99190.88;;;-5.36;100.00
15914;BME280;8055;51.930;8.840;2022-11-20T01:21:07;99191.41;;;-5.45;100.00
15914;BME280;8055;51.930;8.840;2022-11-20T01:23:38;99193.31;;;-5.47;100.00
15914;BME280;8055;51.930;8.840;2022-11-20T01:26:05;99195.28;;;-5.51;100.00
15914;BME280;8055;51.930;8.840;2022-11-20T01:28:32;99193.38;;;-5.49;100.00
15914;BME280;8055;51.930;8.840;2022-11-20T01:30:57;99193.50;;;-5.50;100.00
15914;BME280;8055;51.930;8.840;2022-11-20T01:33:23;99184.94;;;-5.55;100.00
15914;BME280;8055;51.930;8.840;2022-11-20T01:35:48;99192.16;;;-5.57;100.00
15914;BME280;8055;51.930;8.840;2022-11-20T01:38:15;99186.94;;;-5.59;100.00
15914;BME280;8055;51.930;8.840;2022-11-20T01:40:41;99186.09;;;-5.60;100.00
15914;BME280;8055;51.930;8.840;2022-11-20T01:43:14;99177.97;;;-5.56;100.00
15914;BME280;8055;51.930;8.840;2022-11-20T01:45:58;99176.09;;;-5.54;100.00
15914;BME280;8055;51.930;8.840;2022-11-20T01:48:28;99178.31;;;-5.63;100.00
15914;BME280;8055;51.930;8.840;2022-11-20T01:50:55;99180.88;;;-5.61;100.00
15914;BME280;8055;51.930;8.840;2022-11-20T01:53:25;99177.66;;;-5.66;100.00
15914;BME280;8055;51.930;8.840;2022-11-20T01:55:55;99173.97;;;-5.64;100.00
15914;BME280;8055;51.930;8.840;2022-11-20T01:58:27;99176.69;;;-5.65;100.00
15914;BME280;8055;51.930;8.840;2022-11-20T02:00:56;99181.31;;;-5.69;100.00
15914;BME280;8055;51.930;8.840;2022-11-20T02:03:21;99171.88;;;-5.73;100.00
15914;BME280;8055;51.930;8.840;2022-11-20T02:06:04;99174.59;;;-5.74;100.00
15914;BME280;8055;51.930;8.840;2022-11-20T02:08:31;99179.38;;;-5.81;100.00
15914;BME280;8055;51.930;8.840;2022-11-20T02:10:57;99173.91;;;-5.78;100.00
15914;BME280;8055;51.930;8.840;2022-11-20T02:13:22;99169.22;;;-5.73;100.00
15914;BME280;8055;51.930;8.840;2022-11-20T02:16:10;99168.63;;;-5.78;100.00
15914;BME280;8055;51.930;8.840;2022-11-20T02:18:37;99168.38;;;-5.73;100.00
15914;BME280;8055;51.930;8.840;2022-11-20T02:21:13;99162.22;;;-5.74;100.00
15914;BME280;8055;51.930;8.840;2022-11-20T02:24:05;99162.31;;;-5.75;100.00
15914;BME280;8055;51.930;8.840;2022-11-20T02:26:34;99157.09;;;-5.77;100.00
15914;BME280;8055;51.930;8.840;2022-11-20T02:29:02;99154.28;;;-5.74;100.00
15914;BME280;8055;51.930;8.840;2022-11-20T02:31:28;99152.59;;;-5.75;100.00
15914;BME280;8055;51.930;8.840;2022-11-20T02:33:55;99160.34;;;-5.72;100.00
15914;BME280;8055;51.930;8.840;2022-11-20T02:36:21;99146.28;;;-5.72;100.00
15914;BME280;8055;51.930;8.840;2022-11-20T02:38:48;99149.66;;;-5.70;100.00
15914;BME280;8055;51.930;8.840;2022-11-20T02:41:14;99147.13;;;-5.72;100.00
15914;BME280;8055;51.930;8.840;2022-11-20T02:43:39;99146.94;;;-5.69;100.00
15914;BME280;8055;51.930;8.840;2022-11-20T02:46:07;99146.84;;;-5.67;100.00
15914;BME280;8055;51.930;8.840;2022-11-20T02:48:32;99142.44;;;-5.67;100.00
15914;BME280;8055;51.930;8.840;2022-11-20T02:50:57;99139.97;;;-5.70;100.00
15914;BME280;8055;51.930;8.840;2022-11-20T02:53:23;99138.16;;;-5.69;100.00
15914;BME280;8055;51.930;8.840;2022-11-20T02:55:48;99140.88;;;-5.71;100.00
15914;BME280;8055;51.930;8.840;2022-11-20T02:58:13;99140.03;;;-5.71;100.00
15914;BME280;8055;51.930;8.840;2022-11-20T03:00:39;99128.31;;;-5.67;100.00
15914;BME280;8055;51.930;8.840;2022-11-20T03:03:04;99125.00;;;-5.71;100.00
15914;BME280;8055;51.930;8.840;2022-11-20T03:05:29;99120.78;;;-5.73;100.00
15914;BME280;8055;51.930;8.840;2022-11-20T03:07:55;99117.25;;;-5.74;100.00
15914;BME280;8055;51.930;8.840;2022-11-20T03:10:20;99126.81;;;-5.71;100.00
15914;BME280;8055;51.930;8.840;2022-11-20T03:12:45;99118.63;;;-5.67;100.00
15914;BME280;8055;51.930;8.840;2022-11-20T03:15:11;99115.88;;;-5.65;100.00
15914;BME280;8055;51.930;8.840;2022-11-20T03:17:36;99114.06;;;-5.65;100.00
15914;BME280;8055;51.930;8.840;2022-11-20T03:20:02;99113.06;;;-5.62;100.00
15914;BME280;8055;51.930;8.840;2022-11-20T03:22:29;99109.97;;;-5.54;100.00
15914;BME280;8055;51.930;8.840;2022-11-20T03:24:55;99105.34;;;-5.51;100.00
15914;BME280;8055;51.930;8.840;2022-11-20T03:27:20;99105.44;;;-5.52;100.00
15914;BME280;8055;51.930;8.840;2022-11-20T03:29:45;99098.50;;;-5.55;100.00
15914;BME280;8055;51.930;8.840;2022-11-20T03:32:11;99097.13;;;-5.61;100.00
15914;BME280;8055;51.930;8.840;2022-11-20T03:34:36;99096.16;;;-5.60;100.00
15914;BME280;8055;51.930;8.840;2022-11-20T03:37:02;99098.03;;;-5.62;100.00
15914;BME280;8055;51.930;8.840;2022-11-20T03:39:27;99102.59;;;-5.64;100.00
15914;BME280;8055;51.930;8.840;2022-11-20T03:41:52;99099.63;;;-5.73;100.00
15914;BME280;8055;51.930;8.840;2022-11-20T03:44:21;99102.75;;;-5.67;100.00
15914;BME280;8055;51.930;8.840;2022-11-20T03:46:46;99099.41;;;-5.70;100.00
15914;BME280;8055;51.930;8.840;2022-11-20T03:49:11;99101.13;;;-5.69;100.00
15914;BME280;8055;51.930;8.840;2022-11-20T03:51:37;99100.28;;;-5.70;100.00
15914;BME280;8055;51.930;8.840;2022-11-20T03:54:05;99100.28;;;-5.70;100.00
15914;BME280;8055;51.930;8.840;2022-11-20T03:56:33;99094.41;;;-5.75;100.00
15914;BME280;8055;51.930;8.840;2022-11-20T03:58:59;99099.69;;;-5.75;100.00
15914;BME280;8055;51.930;8.840;2022-11-20T04:01:27;99095.09;;;-5.71;100.00
15914;BME280;8055;51.930;8.840;2022-11-20T04:03:54;99099.94;;;-5.64;100.00
15914;BME280;8055;51.930;8.840;2022-11-20T04:06:28;99103.50;;;-5.65;100.00
15914;BME280;8055;51.930;8.840;2022-11-20T04:08:55;99100.84;;;-5.65;100.00
15914;BME280;8055;51.930;8.840;2022-11-20T04:11:23;99104.34;;;-5.64;100.00
15914;BME280;8055;51.930;8.840;2022-11-20T04:13:54;99109.56;;;-5.63;100.00
15914;BME280;8055;51.930;8.840;2022-11-20T04:16:21;99118.69;;;-5.68;100.00
15914;BME280;8055;51.930;8.840;2022-11-20T04:18:46;99109.25;;;-5.72;100.00
15914;BME280;8055;51.930;8.840;2022-11-20T04:21:12;99114.53;;;-5.72;100.00
15914;BME280;8055;51.930;8.840;2022-11-20T04:23:37;99112.75;;;-5.72;100.00
15914;BME280;8055;51.930;8.840;2022-11-20T04:26:06;99111.41;;;-5.79;100.00
15914;BME280;8055;51.930;8.840;2022-11-20T04:28:32;99109.84;;;-5.83;100.00
15914;BME280;8055;51.930;8.840;2022-11-20T04:31:08;99104.31;;;-5.78;100.00
15914;BME280;8055;51.930;8.840;2022-11-20T04:33:35;99104.16;;;-5.75;100.00
15914;BME280;8055;51.930;8.840;2022-11-20T04:36:06;99107.63;;;-5.75;100.00
15914;BME280;8055;51.930;8.840;2022-11-20T04:38:32;99105.59;;;-5.70;100.00
15914;BME280;8055;51.930;8.840;2022-11-20T04:40:59;99101.81;;;-5.66;100.00
15914;BME280;8055;51.930;8.840;2022-11-20T04:43:25;99106.16;;;-5.65;100.00
15914;BME280;8055;51.930;8.840;2022-11-20T04:45:52;99100.59;;;-5.60;100.00
15914;BME280;8055;51.930;8.840;2022-11-20T04:48:18;99106.63;;;-5.58;100.00
15914;BME280;8055;51.930;8.840;2022-11-20T04:50:43;99100.69;;;-5.62;100.00
15914;BME280;8055;51.930;8.840;2022-11-20T04:53:09;99102.28;;;-5.73;100.00
15914;BME280;8055;51.930;8.840;2022-11-20T04:55:34;99095.94;;;-5.71;100.00
15914;BME280;8055;51.930;8.840;2022-11-20T04:57:59;99099.53;;;-5.72;100.00
15914;BME280;8055;51.930;8.840;2022-11-20T05:00:25;99099.63;;;-5.73;100.00
15914;BME280;8055;51.930;8.840;2022-11-20T05:02:50;99099.88;;;-5.78;100.00
15914;BME280;8055;51.930;8.840;2022-11-20T05:05:15;99093.06;;;-5.82;100.00
15914;BME280;8055;51.930;8.840;2022-11-20T05:07:41;99096.91;;;-5.88;100.00
15914;BME280;8055;51.930;8.840;2022-11-20T05:10:06;99105.03;;;-5.91;100.00
15914;BME280;8055;51.930;8.840;2022-11-20T05:12:32;99097.66;;;-6.00;100.00
15914;BME280;8055;51.930;8.840;2022-11-20T05:14:57;99096.63;;;-5.97;100.00
15914;BME280;8055;51.930;8.840;2022-11-20T05:17:22;99094.69;;;-6.10;100.00
15914;BME280;8055;51.930;8.840;2022-11-20T05:19:48;99095.88;;;-6.15;100.00
15914;BME280;8055;51.930;8.840;2022-11-20T05:22:13;99091.81;;;-6.21;100.00
15914;BME280;8055;51.930;8.840;2022-11-20T05:24:38;99093.53;;;-6.20;100.00
15914;BME280;8055;51.930;8.840;2022-11-20T05:27:04;99094.63;;;-6.24;100.00
15914;BME280;8055;51.930;8.840;2022-11-20T05:29:29;99098.22;;;-6.25;100.00
15914;BME280;8055;51.930;8.840;2022-11-20T05:31:54;99107.94;;;-6.25;100.00
15914;BME280;8055;51.930;8.840;2022-11-20T05:34:20;99105.47;;;-6.29;100.00
15914;BME280;8055;51.930;8.840;2022-11-20T05:36:45;99107.25;;;-6.29;100.00
15914;BME280;8055;51.930;8.840;2022-11-20T05:39:10;99110.81;;;-6.30;100.00
15914;BME280;8055;51.930;8.840;2022-11-20T05:41:36;99096.75;;;-6.31;100.00
15914;BME280;8055;51.930;8.840;2022-11-20T05:44:01;99099.31;;;-6.29;100.00
15914;BME280;8055;51.930;8.840;2022-11-20T05:46:27;99101.19;;;-6.31;100.00
15914;BME280;8055;51.930;8.840;2022-11-20T05:48:52;99094.22;;;-6.32;100.00
15914;BME280;8055;51.930;8.840;2022-11-20T05:51:19;99104.00;;;-6.34;100.00
15914;BME280;8055;51.930;8.840;2022-11-20T05:53:44;99096.34;;;-6.39;100.00
15914;BME280;8055;51.930;8.840;2022-11-20T05:56:12;99097.38;;;-6.41;100.00
15914;BME280;8055;51.930;8.840;2022-11-20T05:58:38;99090.13;;;-6.38;100.00
15914;BME280;8055;51.930;8.840;2022-11-20T06:03:41;99092.66;;;-6.36;100.00
15914;BME280;8055;51.930;8.840;2022-11-20T06:06:17;99086.63;;;-6.38;100.00
15914;BME280;8055;51.930;8.840;2022-11-20T06:08:43;99096.06;;;-6.34;100.00
15914;BME280;8055;51.930;8.840;2022-11-20T06:11:11;99094.56;;;-6.38;100.00
15914;BME280;8055;51.930;8.840;2022-11-20T06:13:37;99090.13;;;-6.38;100.00
15914;BME280;8055;51.930;8.840;2022-11-20T06:16:02;99086.47;;;-6.35;100.00
15914;BME280;8055;51.930;8.840;2022-11-20T06:18:28;99087.97;;;-6.31;100.00
15914;BME280;8055;51.930;8.840;2022-11-20T06:21:02;99099.31;;;-6.29;100.00
15914;BME280;8055;51.930;8.840;2022-11-20T06:23:29;99098.47;;;-6.30;100.00
15914;BME280;8055;51.930;8.840;2022-11-20T06:25:55;99093.59;;;-6.37;100.00
15914;BME280;8055;51.930;8.840;2022-11-20T06:28:20;99092.66;;;-6.36;100.00
15914;BME280;8055;51.930;8.840;2022-11-20T06:30:47;99090.97;;;-6.37;100.00
15914;BME280;8055;51.930;8.840;2022-11-20T06:33:12;99099.84;;;-6.38;100.00
15914;BME280;8055;51.930;8.840;2022-11-20T06:35:38;99088.25;;;-6.36;100.00
15914;BME280;8055;51.930;8.840;2022-11-20T06:38:03;99076.63;;;-6.33;100.00
15914;BME280;8055;51.930;8.840;2022-11-20T06:40:28;99073.94;;;-6.32;100.00
15914;BME280;8055;51.930;8.840;2022-11-20T06:42:54;99082.81;;;-6.33;100.00
15914;BME280;8055;51.930;8.840;2022-11-20T06:45:20;99089.94;;;-6.35;100.00
15914;BME280;8055;51.930;8.840;2022-11-20T06:47:45;99076.56;;;-6.32;100.00
15914;BME280;8055;51.930;8.840;2022-11-20T06:50:11;99073.75;;;-6.29;100.00
15914;BME280;8055;51.930;8.840;2022-11-20T06:52:36;99083.13;;;-6.23;100.00
15914;BME280;8055;51.930;8.840;2022-11-20T06:55:02;99075.09;;;-6.21;100.00
15914;BME280;8055;51.930;8.840;2022-11-20T06:57:27;99078.50;;;-6.19;100.00
15914;BME280;8055;51.930;8.840;2022-11-20T06:59:52;99081.00;;;-6.16;100.00
15914;BME280;8055;51.930;8.840;2022-11-20T07:02:18;99074.84;;;-6.17;100.00
15914;BME280;8055;51.930;8.840;2022-11-20T07:04:43;99076.38;;;-6.13;100.00
15914;BME280;8055;51.930;8.840;2022-11-20T07:07:08;99073.44;;;-6.08;100.00
15914;BME280;8055;51.930;8.840;2022-11-20T07:09:34;99085.81;;;-6.09;100.00
15914;BME280;8055;51.930;8.840;2022-11-20T07:11:59;99086.78;;;-6.10;100.00
15914;BME280;8055;51.930;8.840;2022-11-20T07:14:25;99084.72;;;-6.04;100.00
15914;BME280;8055;51.930;8.840;2022-11-20T07:16:50;99082.75;;;-6.01;100.00
15914;BME280;8055;51.930;8.840;2022-11-20T07:19:16;99085.13;;;-5.96;100.00
15914;BME280;8055;51.930;8.840;2022-11-20T07:21:41;99089.38;;;-5.94;100.00
15914;BME280;8055;51.930;8.840;2022-11-20T07:24:07;99083.88;;;-5.91;100.00
15914;BME280;8055;51.930;8.840;2022-11-20T07:26:32;99083.88;;;-5.91;100.00
15914;BME280;8055;51.930;8.840;2022-11-20T07:28:57;99084.56;;;-5.87;100.00
15914;BME280;8055;51.930;8.840;2022-11-20T07:31:23;99089.59;;;-5.83;100.00
15914;BME280;8055;51.930;8.840;2022-11-20T07:33:48;99093.75;;;-5.78;100.00
15914;BME280;8055;51.930;8.840;2022-11-20T07:36:14;99092.38;;;-5.70;100.00
15914;BME280;8055;51.930;8.840;2022-11-20T07:38:39;99095.38;;;-5.62;100.00
15914;BME280;8055;51.930;8.840;2022-11-20T07:41:05;99094.78;;;-5.51;100.00
15914;BME280;8055;51.930;8.840;2022-11-20T07:43:30;99097.72;;;-5.27;100.00
15914;BME280;8055;51.930;8.840;2022-11-20T07:45:59;99089.41;;;-5.21;100.00
15914;BME280;8055;51.930;8.840;2022-11-20T07:48:24;99094.34;;;-5.15;100.00
15914;BME280;8055;51.930;8.840;2022-11-20T07:50:53;99101.63;;;-5.04;100.00
15914;BME280;8055;51.930;8.840;2022-11-20T07:53:19;99097.34;;;-4.92;100.00
15914;BME280;8055;51.930;8.840;2022-11-20T07:55:47;99093.22;;;-4.82;100.00
15914;BME280;8055;51.930;8.840;2022-11-20T07:58:12;99093.19;;;-4.68;100.00
15914;BME280;8055;51.930;8.840;2022-11-20T08:00:39;99092.72;;;-4.60;100.00
15914;BME280;8055;51.930;8.840;2022-11-20T08:03:05;99101.28;;;-4.42;100.00
15914;BME280;8055;51.930;8.840;2022-11-20T08:05:30;99097.13;;;-4.32;100.00
15914;BME280;8055;51.930;8.840;2022-11-20T08:07:55;99095.16;;;-4.15;100.00
15914;BME280;8055;51.930;8.840;2022-11-20T08:10:21;99100.72;;;-4.06;100.00
15914;BME280;8055;51.930;8.840;2022-11-20T08:12:48;99102.56;;;-3.93;100.00
15914;BME280;8055;51.930;8.840;2022-11-20T08:15:32;99089.75;;;-3.87;100.00
15914;BME280;8055;51.930;8.840;2022-11-20T08:18:05;99099.56;;;-3.75;100.00
15914;BME280;8055;51.930;8.840;2022-11-20T08:20:32;99095.53;;;-3.67;100.00
15914;BME280;8055;51.930;8.840;2022-11-20T08:22:59;99096.19;;;-3.64;100.00
15914;BME280;8055;51.930;8.840;2022-11-20T08:25:25;99092.25;;;-3.58;100.00
15914;BME280;8055;51.930;8.840;2022-11-20T08:27:50;99094.63;;;-3.54;100.00
15914;BME280;8055;51.930;8.840;2022-11-20T08:30:16;99089.19;;;-3.52;100.00
15914;BME280;8055;51.930;8.840;2022-11-20T08:32:41;99085.59;;;-3.51;100.00
15914;BME280;8055;51.930;8.840;2022-11-20T08:35:07;99089.44;;;-3.42;100.00
15914;BME280;8055;51.930;8.840;2022-11-20T08:37:33;99085.50;;;-3.37;100.00
15914;BME280;8055;51.930;8.840;2022-11-20T08:39:58;99081.25;;;-3.27;100.00
15914;BME280;8055;51.930;8.840;2022-11-20T08:42:23;99087.97;;;-3.21;100.00
15914;BME280;8055;51.930;8.840;2022-11-20T08:44:49;99080.53;;;-3.16;100.00
15914;BME280;8055;51.930;8.840;2022-11-20T08:47:14;99073.72;;;-3.07;100.00
15914;BME280;8055;51.930;8.840;2022-11-20T08:49:39;99063.31;;;-2.97;100.00
15914;BME280;8055;51.930;8.840;2022-11-20T08:52:05;99065.44;;;-2.90;100.00
15914;BME280;8055;51.930;8.840;2022-11-20T08:54:30;99065.84;;;-2.83;100.00
15914;BME280;8055;51.930;8.840;2022-11-20T08:56:56;99062.22;;;-2.82;100.00
15914;BME280;8055;51.930;8.840;2022-11-20T08:59:23;99068.91;;;-2.76;100.00
15914;BME280;8055;51.930;8.840;2022-11-20T09:01:48;99059.03;;;-2.74;100.00
15914;BME280;8055;51.930;8.840;2022-11-20T09:04:13;99061.47;;;-2.71;100.00
15914;BME280;8055;51.930;8.840;2022-11-20T09:06:39;99064.53;;;-2.65;100.00
15914;BME280;8055;51.930;8.840;2022-11-20T09:09:05;99061.66;;;-2.62;100.00
15914;BME280;8055;51.930;8.840;2022-11-20T09:11:31;99070.78;;;-2.53;100.00
15914;BME280;8055;51.930;8.840;2022-11-20T09:13:56;99074.94;;;-2.49;100.00
15914;BME280;8055;51.930;8.840;2022-11-20T09:16:22;99080.03;;;-2.46;100.00
15914;BME280;8055;51.930;8.840;2022-11-20T09:18:49;99068.59;;;-2.35;100.00
15914;BME280;8055;51.930;8.840;2022-11-20T09:21:15;99080.81;;;-2.33;100.00
15914;BME280;8055;51.930;8.840;2022-11-20T09:23:40;99077.50;;;-2.23;100.00
15914;BME280;8055;51.930;8.840;2022-11-20T09:26:09;99072.56;;;-2.17;100.00
15914;BME280;8055;51.930;8.840;2022-11-20T09:28:35;99072.25;;;-2.12;100.00
15914;BME280;8055;51.930;8.840;2022-11-20T09:31:00;99066.97;;;-2.01;100.00
15914;BME280;8055;51.930;8.840;2022-11-20T09:33:26;99067.72;;;-1.99;100.00
15914;BME280;8055;51.930;8.840;2022-11-20T09:35:52;99068.69;;;-2.00;100.00
15914;BME280;8055;51.930;8.840;2022-11-20T09:38:17;99070.06;;;-1.94;100.00
15914;BME280;8055;51.930;8.840;2022-11-20T09:40:47;99071.75;;;-1.93;100.00
15914;BME280;8055;51.930;8.840;2022-11-20T09:43:21;99058.84;;;-1.87;100.00
15914;BME280;8055;51.930;8.840;2022-11-20T09:51:58;99071.47;;;-1.66;100.00
15914;BME280;8055;51.930;8.840;2022-11-20T09:54:42;99072.22;;;-1.64;100.00
15914;BME280;8055;51.930;8.840;2022-11-20T09:57:12;99057.69;;;-1.71;100.00
15914;BME280;8055;51.930;8.840;2022-11-20T09:59:40;99062.72;;;-1.79;100.00
15914;BME280;8055;51.930;8.840;2022-11-20T10:02:35;99059.50;;;-1.72;100.00
15914;BME280;8055;51.930;8.840;2022-11-20T10:05:23;99051.16;;;-1.67;100.00
15914;BME280;8055;51.930;8.840;2022-11-20T10:10:47;99062.34;;;-1.51;100.00
15914;BME280;8055;51.930;8.840;2022-11-20T10:19:45;99051.53;;;-1.25;100.00
15914;BME280;8055;51.930;8.840;2022-11-20T10:29:47;99037.13;;;-0.89;100.00
15914;BME280;8055;51.930;8.840;2022-11-20T10:32:17;99029.50;;;-0.82;100.00
15914;BME280;8055;51.930;8.840;2022-11-20T10:34:52;99016.63;;;-0.66;100.00
15914;BME280;8055;51.930;8.840;2022-11-20T10:37:26;99006.78;;;-0.54;100.00
15914;BME280;8055;51.930;8.840;2022-11-20T10:40:23;99006.91;;;-0.44;100.00
15914;BME280;8055;51.930;8.840;2022-11-20T10:42:55;99011.13;;;-0.31;100.00
15914;BME280;8055;51.930;8.840;2022-11-20T10:47:50;99008.50;;;-0.10;100.00
15914;BME280;8055;51.930;8.840;2022-11-20T10:50:19;98997.31;;;-0.04;100.00
15914;BME280;8055;51.930;8.840;2022-11-20T10:55:42;98979.06;;;0.13;100.00
15914;BME280;8055;51.930;8.840;2022-11-20T11:00:37;98978.56;;;0.19;100.00
15914;BME280;8055;51.930;8.840;2022-11-20T11:03:21;98966.63;;;0.23;100.00
15914;BME280;8055;51.930;8.840;2022-11-20T11:06:06;98969.88;;;0.27;100.00
15914;BME280;8055;51.930;8.840;2022-11-20T11:08:37;98965.00;;;0.32;100.00
15914;BME280;8055;51.930;8.840;2022-11-20T11:11:27;98961.56;;;0.41;100.00
15914;BME280;8055;51.930;8.840;2022-11-20T11:14:04;98961.28;;;0.44;100.00
15914;BME280;8055;51.930;8.840;2022-11-20T11:16:29;98967.06;;;0.49;100.00
15914;BME280;8055;51.930;8.840;2022-11-20T11:19:12;98963.50;;;0.60;100.00
15914;BME280;8055;51.930;8.840;2022-11-20T11:21:38;98952.38;;;0.64;100.00
15914;BME280;8055;51.930;8.840;2022-11-20T11:24:19;98949.25;;;0.59;100.00
15914;BME280;8055;51.930;8.840;2022-11-20T11:29:21;98940.56;;;0.57;100.00
15914;BME280;8055;51.930;8.840;2022-11-20T11:31:47;98935.91;;;0.59;100.00
15914;BME280;8055;51.930;8.840;2022-11-20T11:34:14;98926.78;;;0.62;100.00
15914;BME280;8055;51.930;8.840;2022-11-20T11:36:40;98935.91;;;0.59;100.00
15914;BME280;8055;51.930;8.840;2022-11-20T11:39:11;98942.69;;;0.63;100.00
15914;BME280;8055;51.930;8.840;2022-11-20T11:41:40;98943.78;;;0.61;100.00
15914;BME280;8055;51.930;8.840;2022-11-20T11:44:22;98941.44;;;0.67;100.00
15914;BME280;8055;51.930;8.840;2022-11-20T11:47:21;98940.75;;;0.75;100.00
15914;BME280;8055;51.930;8.840;2022-11-20T11:49:48;98948.06;;;0.73;100.00
15914;BME280;8055;51.930;8.840;2022-11-20T11:52:17;98946.81;;;0.77;100.00
15914;BME280;8055;51.930;8.840;2022-11-20T11:54:58;98943.75;;;0.82;100.00
15914;BME280;8055;51.930;8.840;2022-11-20T11:57:46;98934.34;;;0.87;100.00
15914;BME280;8055;51.930;8.840;2022-11-20T12:03:08;98918.34;;;0.97;100.00
15914;BME280;8055;51.930;8.840;2022-11-20T12:05:40;98912.44;;;1.03;100.00
15914;BME280;8055;51.930;8.840;2022-11-20T12:08:27;98923.19;;;1.13;100.00
15914;BME280;8055;51.930;8.840;2022-11-20T12:13:50;98911.09;;;1.28;100.00
15914;BME280;8055;51.930;8.840;2022-11-20T12:16:19;98918.28;;;1.37;100.00
15914;BME280;8055;51.930;8.840;2022-11-20T12:18:48;98921.13;;;1.46;100.00
15914;BME280;8055;51.930;8.840;2022-11-20T12:34:27;98906.34;;;1.42;100.00
15914;BME280;8055;51.930;8.840;2022-11-20T12:37:34;98902.41;;;1.36;100.00
15914;BME280;8055;51.930;8.840;2022-11-20T12:39:55;98894.09;;;1.29;100.00
15914;BME280;8055;51.930;8.840;2022-11-20T12:46:03;98889.88;;;1.36;100.00
15914;BME280;8055;51.930;8.840;2022-11-20T12:48:42;98889.47;;;1.41;100.00
15914;BME280;8055;51.930;8.840;2022-11-20T12:51:31;98889.75;;;1.38;100.00
15914;BME280;8055;51.930;8.840;2022-11-20T13:07:38;98874.38;;;1.30;100.00
15914;BME280;8055;51.930;8.840;2022-11-20T13:10:13;98877.19;;;1.29;100.00
15914;BME280;8055;51.930;8.840;2022-11-20T13:12:58;98885.34;;;1.27;100.00
15914;BME280;8055;51.930;8.840;2022-11-20T13:15:36;98878.88;;;1.20;100.00
15914;BME280;8055;51.930;8.840;2022-11-20T13:18:08;98881.94;;;1.15;100.00
15914;BME280;8055;51.930;8.840;2022-11-20T13:20:36;98877.59;;;1.14;100.00
15914;BME280;8055;51.930;8.840;2022-11-20T13:23:01;98868.00;;;1.12;100.00
15914;BME280;8055;51.930;8.840;2022-11-20T13:25:29;98860.97;;;1.11;100.00
15914;BME280;8055;51.930;8.840;2022-11-20T13:27:58;98855.63;;;1.11;100.00
15914;BME280;8055;51.930;8.840;2022-11-20T13:30:25;98854.78;;;1.10;100.00
15914;BME280;8055;51.930;8.840;2022-11-20T13:38:50;98841.81;;;0.96;100.00
15914;BME280;8055;51.930;8.840;2022-11-20T13:41:36;98841.25;;;0.92;100.00
15914;BME280;8055;51.930;8.840;2022-11-20T13:49:07;98835.78;;;0.94;100.00
15914;BME280;8055;51.930;8.840;2022-11-20T13:51:41;98832.78;;;0.97;100.00
15914;BME280;8055;51.930;8.840;2022-11-20T14:02:41;98812.28;;;0.98;100.00
15914;BME280;8055;51.930;8.840;2022-11-20T14:05:28;98813.25;;;0.97;100.00
15914;BME280;8055;51.930;8.840;2022-11-20T14:07:56;98811.53;;;0.86;100.00
15914;BME280;8055;51.930;8.840;2022-11-20T14:10:31;98811.94;;;0.81;100.00
15914;BME280;8055;51.930;8.840;2022-11-20T14:12:57;98810.25;;;0.80;100.00
15914;BME280;8055;51.930;8.840;2022-11-20T14:15:32;98804.06;;;0.80;100.00
15914;BME280;8055;51.930;8.840;2022-11-20T14:17:59;98805.06;;;0.79;100.00
15914;BME280;8055;51.930;8.840;2022-11-20T14:20:29;98794.38;;;0.79;100.00
15914;BME280;8055;51.930;8.840;2022-11-20T14:22:56;98794.50;;;0.77;100.00
15914;BME280;8055;51.930;8.840;2022-11-20T14:25:26;98795.34;;;0.78;100.00
15914;BME280;8055;51.930;8.840;2022-11-20T14:28:00;98789.59;;;0.82;100.00
15914;BME280;8055;51.930;8.840;2022-11-20T14:30:42;98787.88;;;0.81;100.00
15914;BME280;8055;51.930;8.840;2022-11-20T14:33:10;98769.47;;;0.78;100.00
15914;BME280;8055;51.930;8.840;2022-11-20T14:35:44;98767.78;;;0.77;100.00
15914;BME280;8055;51.930;8.840;2022-11-20T14:38:13;98759.91;;;0.76;100.00
15914;BME280;8055;51.930;8.840;2022-11-20T14:40:39;98763.81;;;0.72;100.00
15914;BME280;8055;51.930;8.840;2022-11-20T14:43:25;98758.63;;;0.70;100.00
15914;BME280;8055;51.930;8.840;2022-11-20T14:45:59;98758.91;;;0.67;100.00